sensor_id;sensor_type;location;lat;lon;timestamp;P1;durP1;ratioP1;P2;durP2;ratioP2
53309;SDS011;39197;53.200;5.792;2024-01-15T00:01:49;17.73;;;1.70;;
53309;SDS011;39197;53.200;5.792;2024-01-15T00:04:15;15.52;;;2.00;;
53309;SDS011;39197;53.200;5.792;2024-01-15T00:06:40;22.00;;;3.75;;
53309;SDS011;39197;53.200;5.792;2024-01-15T00:09:06;21.10;;;2.58;;
53309;SDS011;39197;53.200;5.792;2024-01-15T00:11:32;23.95;;;2.80;;
53309;SDS011;39197;53.200;5.792;2024-01-15T00:13:57;17.00;;;2.28;;
53309;SDS011;39197;53.200;5.792;2024-01-15T00:16:23;16.45;;;2.78;;
53309;SDS011;39197;53.200;5.792;2024-01-15T00:18:49;20.88;;;3.33;;
53309;SDS011;39197;53.200;5.792;2024-01-15T00:21:15;16.38;;;2.25;;
53309;SDS011;39197;53.200;5.792;2024-01-15T00:23:43;15.75;;;2.08;;
53309;SDS011;39197;53.200;5.792;2024-01-15T00:26:10;22.05;;;2.35;;
53309;SDS011;39197;53.200;5.792;2024-01-15T00:28:39;18.38;;;2.58;;
53309;SDS011;39197;53.200;5.792;2024-01-15T00:31:04;24.08;;;2.47;;
53309;SDS011;39197;53.200;5.792;2024-01-15T00:33:30;15.73;;;2.10;;
53309;SDS011;39197;53.200;5.792;2024-01-15T00:35:56;28.77;;;4.20;;
53309;SDS011;39197;53.200;5.792;2024-01-15T00:38:22;26.75;;;4.13;;
53309;SDS011;39197;53.200;5.792;2024-01-15T00:40:47;16.15;;;2.83;;
53309;SDS011;39197;53.200;5.792;2024-01-15T00:43:13;14.93;;;4.43;;
53309;SDS011;39197;53.200;5.792;2024-01-15T00:45:39;18.42;;;3.00;;
53309;SDS011;39197;53.200;5.792;2024-01-15T00:48:06;12.52;;;2.38;;
53309;SDS011;39197;53.200;5.792;2024-01-15T00:50:31;9.05;;;1.13;;
53309;SDS011;39197;53.200;5.792;2024-01-15T00:52:57;16.73;;;3.00;;
53309;SDS011;39197;53.200;5.792;2024-01-15T00:55:23;18.50;;;4.10;;
53309;SDS011;39197;53.200;5.792;2024-01-15T00:57:48;16.92;;;3.00;;
53309;SDS011;39197;53.200;5.792;2024-01-15T01:00:14;15.35;;;2.90;;
53309;SDS011;39197;53.200;5.792;2024-01-15T01:02:40;13.57;;;3.75;;
53309;SDS011;39197;53.200;5.792;2024-01-15T01:05:06;21.33;;;4.95;;
53309;SDS011;39197;53.200;5.792;2024-01-15T01:07:31;14.75;;;3.10;;
53309;SDS011;39197;53.200;5.792;2024-01-15T01:10:00;18.73;;;2.90;;
53309;SDS011;39197;53.200;5.792;2024-01-15T01:12:26;18.13;;;2.53;;
53309;SDS011;39197;53.200;5.792;2024-01-15T01:14:52;21.15;;;2.63;;
53309;SDS011;39197;53.200;5.792;2024-01-15T01:17:18;23.60;;;2.88;;
53309;SDS011;39197;53.200;5.792;2024-01-15T01:19:43;22.77;;;2.60;;
53309;SDS011;39197;53.200;5.792;2024-01-15T01:22:09;25.73;;;3.35;;
53309;SDS011;39197;53.200;5.792;2024-01-15T01:24:35;24.75;;;2.58;;
53309;SDS011;39197;53.200;5.792;2024-01-15T01:27:00;21.55;;;3.47;;
53309;SDS011;39197;53.200;5.792;2024-01-15T01:29:26;27.88;;;4.85;;
53309;SDS011;39197;53.200;5.792;2024-01-15T01:31:52;21.30;;;2.40;;
53309;SDS011;39197;53.200;5.792;2024-01-15T01:34:17;21.17;;;2.63;;
53309;SDS011;39197;53.200;5.792;2024-01-15T01:36:43;25.92;;;2.88;;
53309;SDS011;39197;53.200;5.792;2024-01-15T01:39:09;28.27;;;2.90;;
53309;SDS011;39197;53.200;5.792;2024-01-15T01:41:35;20.27;;;2.08;;
53309;SDS011;39197;53.200;5.792;2024-01-15T01:44:03;24.13;;;4.85;;
53309;SDS011;39197;53.200;5.792;2024-01-15T01:46:28;20.67;;;2.95;;
53309;SDS011;39197;53.200;5.792;2024-01-15T01:48:55;24.88;;;3.88;;
53309;SDS011;39197;53.200;5.792;2024-01-15T01:51:24;24.90;;;3.65;;
53309;SDS011;39197;53.200;5.792;2024-01-15T01:53:50;24.65;;;3.65;;
53309;SDS011;39197;53.200;5.792;2024-01-15T01:56:17;26.20;;;2.90;;
53309;SDS011;39197;53.200;5.792;2024-01-15T01:58:43;30.33;;;4.30;;
53309;SDS011;39197;53.200;5.792;2024-01-15T02:01:10;41.33;;;10.20;;
53309;SDS011;39197;53.200;5.792;2024-01-15T02:03:38;33.63;;;5.70;;
53309;SDS011;39197;53.200;5.792;2024-01-15T02:06:05;43.28;;;10.32;;
53309;SDS011;39197;53.200;5.792;2024-01-15T02:08:31;42.53;;;6.65;;
53309;SDS011;39197;53.200;5.792;2024-01-15T02:10:57;32.10;;;6.95;;
53309;SDS011;39197;53.200;5.792;2024-01-15T02:13:22;27.45;;;4.57;;
53309;SDS011;39197;53.200;5.792;2024-01-15T02:15:48;24.92;;;4.55;;
53309;SDS011;39197;53.200;5.792;2024-01-15T02:18:14;17.90;;;3.13;;
53309;SDS011;39197;53.200;5.792;2024-01-15T02:20:39;31.80;;;5.50;;
53309;SDS011;39197;53.200;5.792;2024-01-15T02:23:09;26.33;;;4.10;;
53309;SDS011;39197;53.200;5.792;2024-01-15T02:25:36;17.42;;;3.97;;
53309;SDS011;39197;53.200;5.792;2024-01-15T02:28:15;21.20;;;2.22;;
53309;SDS011;39197;53.200;5.792;2024-01-15T02:30:42;17.80;;;1.70;;
53309;SDS011;39197;53.200;5.792;2024-01-15T02:33:09;27.00;;;3.63;;
53309;SDS011;39197;53.200;5.792;2024-01-15T02:35:36;18.83;;;2.67;;
53309;SDS011;39197;53.200;5.792;2024-01-15T02:38:02;28.95;;;4.78;;
53309;SDS011;39197;53.200;5.792;2024-01-15T02:40:28;16.10;;;2.50;;
53309;SDS011;39197;53.200;5.792;2024-01-15T02:42:54;12.65;;;2.40;;
53309;SDS011;39197;53.200;5.792;2024-01-15T02:45:20;15.18;;;2.72;;
53309;SDS011;39197;53.200;5.792;2024-01-15T02:47:46;8.68;;;1.38;;
53309;SDS011;39197;53.200;5.792;2024-01-15T02:50:11;8.27;;;1.05;;
53309;SDS011;39197;53.200;5.792;2024-01-15T02:52:37;11.52;;;1.65;;
53309;SDS011;39197;53.200;5.792;2024-01-15T02:55:03;16.70;;;2.85;;
53309;SDS011;39197;53.200;5.792;2024-01-15T02:57:28;17.85;;;2.30;;
53309;SDS011;39197;53.200;5.792;2024-01-15T02:59:54;20.52;;;4.50;;
53309;SDS011;39197;53.200;5.792;2024-01-15T03:02:20;19.50;;;2.00;;
53309;SDS011;39197;53.200;5.792;2024-01-15T03:04:45;21.55;;;2.50;;
53309;SDS011;39197;53.200;5.792;2024-01-15T03:07:11;19.00;;;2.03;;
53309;SDS011;39197;53.200;5.792;2024-01-15T03:09:37;18.88;;;1.92;;
53309;SDS011;39197;53.200;5.792;2024-01-15T03:12:03;24.20;;;2.80;;
53309;SDS011;39197;53.200;5.792;2024-01-15T03:14:29;17.73;;;1.77;;
53309;SDS011;39197;53.200;5.792;2024-01-15T03:16:54;24.20;;;2.03;;
53309;SDS011;39197;53.200;5.792;2024-01-15T03:19:20;16.65;;;2.17;;
53309;SDS011;39197;53.200;5.792;2024-01-15T03:21:46;12.65;;;1.10;;
53309;SDS011;39197;53.200;5.792;2024-01-15T03:24:12;13.43;;;1.85;;
53309;SDS011;39197;53.200;5.792;2024-01-15T03:26:38;12.23;;;1.10;;
53309;SDS011;39197;53.200;5.792;2024-01-15T03:29:03;11.82;;;0.98;;
53309;SDS011;39197;53.200;5.792;2024-01-15T03:31:29;10.80;;;0.80;;
53309;SDS011;39197;53.200;5.792;2024-01-15T03:33:55;12.13;;;1.27;;
53309;SDS011;39197;53.200;5.792;2024-01-15T03:36:21;8.52;;;0.80;;
53309;SDS011;39197;53.200;5.792;2024-01-15T03:38:46;10.85;;;0.88;;
53309;SDS011;39197;53.200;5.792;2024-01-15T03:41:12;9.77;;;0.82;;
53309;SDS011;39197;53.200;5.792;2024-01-15T03:43:38;10.93;;;2.33;;
53309;SDS011;39197;53.200;5.792;2024-01-15T03:46:04;15.70;;;1.27;;
53309;SDS011;39197;53.200;5.792;2024-01-15T03:48:30;7.22;;;0.90;;
53309;SDS011;39197;53.200;5.792;2024-01-15T03:50:55;5.15;;;0.45;;
53309;SDS011;39197;53.200;5.792;2024-01-15T03:53:21;4.38;;;0.65;;
53309;SDS011;39197;53.200;5.792;2024-01-15T03:55:46;4.68;;;0.40;;
53309;SDS011;39197;53.200;5.792;2024-01-15T03:58:12;4.70;;;0.30;;
53309;SDS011;39197;53.200;5.792;2024-01-15T04:00:40;7.15;;;0.40;;
53309;SDS011;39197;53.200;5.792;2024-01-15T04:03:06;8.52;;;0.57;;
53309;SDS011;39197;53.200;5.792;2024-01-15T04:05:31;5.95;;;0.40;;
53309;SDS011;39197;53.200;5.792;2024-01-15T04:07:57;11.82;;;0.73;;
53309;SDS011;39197;53.200;5.792;2024-01-15T04:10:23;10.88;;;0.70;;
53309;SDS011;39197;53.200;5.792;2024-01-15T04:12:48;9.18;;;0.90;;
53309;SDS011;39197;53.200;5.792;2024-01-15T04:15:14;14.63;;;1.75;;
53309;SDS011;39197;53.200;5.792;2024-01-15T04:17:40;12.43;;;0.90;;
53309;SDS011;39197;53.200;5.792;2024-01-15T04:20:06;15.15;;;1.70;;
53309;SDS011;39197;53.200;5.792;2024-01-15T04:22:32;16.90;;;1.20;;
53309;SDS011;39197;53.200;5.792;2024-01-15T04:24:59;13.10;;;1.10;;
53309;SDS011;39197;53.200;5.792;2024-01-15T04:27:24;14.45;;;1.52;;
53309;SDS011;39197;53.200;5.792;2024-01-15T04:29:50;12.63;;;1.20;;
53309;SDS011;39197;53.200;5.792;2024-01-15T04:32:15;12.63;;;0.98;;
53309;SDS011;39197;53.200;5.792;2024-01-15T04:34:41;15.60;;;1.13;;
53309;SDS011;39197;53.200;5.792;2024-01-15T04:37:06;20.02;;;2.30;;
53309;SDS011;39197;53.200;5.792;2024-01-15T04:39:32;17.63;;;1.33;;
53309;SDS011;39197;53.200;5.792;2024-01-15T04:41:58;15.10;;;1.13;;
53309;SDS011;39197;53.200;5.792;2024-01-15T04:44:23;11.20;;;1.10;;
53309;SDS011;39197;53.200;5.792;2024-01-15T04:46:49;10.57;;;1.33;;
53309;SDS011;39197;53.200;5.792;2024-01-15T04:49:14;13.75;;;1.35;;
53309;SDS011;39197;53.200;5.792;2024-01-15T04:51:40;15.57;;;1.20;;
53309;SDS011;39197;53.200;5.792;2024-01-15T04:54:05;11.45;;;1.60;;
53309;SDS011;39197;53.200;5.792;2024-01-15T04:56:31;12.95;;;2.92;;
53309;SDS011;39197;53.200;5.792;2024-01-15T04:58:56;19.25;;;1.40;;
53309;SDS011;39197;53.200;5.792;2024-01-15T05:01:22;14.30;;;2.45;;
53309;SDS011;39197;53.200;5.792;2024-01-15T05:03:48;17.15;;;1.73;;
53309;SDS011;39197;53.200;5.792;2024-01-15T05:06:14;17.27;;;2.17;;
53309;SDS011;39197;53.200;5.792;2024-01-15T05:08:40;15.35;;;1.50;;
53309;SDS011;39197;53.200;5.792;2024-01-15T05:11:05;12.25;;;1.67;;
53309;SDS011;39197;53.200;5.792;2024-01-15T05:13:31;16.42;;;1.48;;
53309;SDS011;39197;53.200;5.792;2024-01-15T05:15:57;16.85;;;1.33;;
53309;SDS011;39197;53.200;5.792;2024-01-15T05:18:22;16.55;;;1.65;;
53309;SDS011;39197;53.200;5.792;2024-01-15T05:20:48;14.68;;;1.77;;
53309;SDS011;39197;53.200;5.792;2024-01-15T05:23:13;17.70;;;1.65;;
53309;SDS011;39197;53.200;5.792;2024-01-15T05:25:39;20.70;;;3.22;;
53309;SDS011;39197;53.200;5.792;2024-01-15T05:28:05;17.95;;;2.22;;
53309;SDS011;39197;53.200;5.792;2024-01-15T05:30:30;25.92;;;2.30;;
53309;SDS011;39197;53.200;5.792;2024-01-15T05:32:56;23.88;;;2.03;;
53309;SDS011;39197;53.200;5.792;2024-01-15T05:35:22;20.52;;;1.77;;
53309;SDS011;39197;53.200;5.792;2024-01-15T05:37:48;16.73;;;2.63;;
53309;SDS011;39197;53.200;5.792;2024-01-15T05:40:14;18.55;;;1.95;;
53309;SDS011;39197;53.200;5.792;2024-01-15T05:42:40;19.83;;;1.45;;
53309;SDS011;39197;53.200;5.792;2024-01-15T05:45:06;14.90;;;1.23;;
53309;SDS011;39197;53.200;5.792;2024-01-15T05:47:32;24.13;;;2.67;;
53309;SDS011;39197;53.200;5.792;2024-01-15T05:49:58;10.18;;;1.38;;
53309;SDS011;39197;53.200;5.792;2024-01-15T05:52:23;13.38;;;1.73;;
53309;SDS011;39197;53.200;5.792;2024-01-15T05:54:49;14.75;;;1.58;;
53309;SDS011;39197;53.200;5.792;2024-01-15T05:57:15;15.48;;;2.47;;
53309;SDS011;39197;53.200;5.792;2024-01-15T05:59:41;16.92;;;2.45;;
53309;SDS011;39197;53.200;5.792;2024-01-15T06:02:07;22.23;;;4.28;;
53309;SDS011;39197;53.200;5.792;2024-01-15T06:04:33;20.35;;;2.42;;
53309;SDS011;39197;53.200;5.792;2024-01-15T06:06:58;16.48;;;2.13;;
53309;SDS011;39197;53.200;5.792;2024-01-15T06:09:24;11.38;;;1.33;;
53309;SDS011;39197;53.200;5.792;2024-01-15T06:11:50;9.88;;;0.77;;
53309;SDS011;39197;53.200;5.792;2024-01-15T06:14:15;8.13;;;1.42;;
53309;SDS011;39197;53.200;5.792;2024-01-15T06:16:41;10.93;;;1.50;;
53309;SDS011;39197;53.200;5.792;2024-01-15T06:19:06;11.07;;;0.63;;
53309;SDS011;39197;53.200;5.792;2024-01-15T06:21:32;16.75;;;1.25;;
53309;SDS011;39197;53.200;5.792;2024-01-15T06:23:57;5.78;;;0.70;;
53309;SDS011;39197;53.200;5.792;2024-01-15T06:26:23;8.82;;;0.63;;
53309;SDS011;39197;53.200;5.792;2024-01-15T06:28:48;9.20;;;0.50;;
53309;SDS011;39197;53.200;5.792;2024-01-15T06:31:14;12.60;;;1.98;;
53309;SDS011;39197;53.200;5.792;2024-01-15T06:33:40;13.68;;;0.52;;
53309;SDS011;39197;53.200;5.792;2024-01-15T06:36:05;10.52;;;0.85;;
53309;SDS011;39197;53.200;5.792;2024-01-15T06:38:31;10.43;;;0.52;;
53309;SDS011;39197;53.200;5.792;2024-01-15T06:40:57;10.50;;;1.23;;
53309;SDS011;39197;53.200;5.792;2024-01-15T06:43:22;10.85;;;0.70;;
53309;SDS011;39197;53.200;5.792;2024-01-15T06:45:48;14.27;;;1.17;;
53309;SDS011;39197;53.200;5.792;2024-01-15T06:48:13;17.83;;;1.48;;
53309;SDS011;39197;53.200;5.792;2024-01-15T06:50:41;13.90;;;1.60;;
53309;SDS011;39197;53.200;5.792;2024-01-15T06:53:09;15.43;;;1.30;;
53309;SDS011;39197;53.200;5.792;2024-01-15T06:55:35;23.55;;;3.72;;
53309;SDS011;39197;53.200;5.792;2024-01-15T06:58:00;15.68;;;1.65;;
53309;SDS011;39197;53.200;5.792;2024-01-15T07:00:26;14.65;;;2.35;;
53309;SDS011;39197;53.200;5.792;2024-01-15T07:02:52;15.45;;;1.00;;
53309;SDS011;39197;53.200;5.792;2024-01-15T07:05:18;11.45;;;1.10;;
53309;SDS011;39197;53.200;5.792;2024-01-15T07:07:45;18.65;;;1.73;;
53309;SDS011;39197;53.200;5.792;2024-01-15T07:10:10;16.38;;;1.83;;
53309;SDS011;39197;53.200;5.792;2024-01-15T07:12:36;11.48;;;1.40;;
53309;SDS011;39197;53.200;5.792;2024-01-15T07:15:02;11.63;;;2.00;;
53309;SDS011;39197;53.200;5.792;2024-01-15T07:17:29;16.42;;;1.65;;
53309;SDS011;39197;53.200;5.792;2024-01-15T07:19:56;15.65;;;1.50;;
53309;SDS011;39197;53.200;5.792;2024-01-15T07:22:21;18.75;;;1.35;;
53309;SDS011;39197;53.200;5.792;2024-01-15T07:24:47;17.38;;;1.98;;
53309;SDS011;39197;53.200;5.792;2024-01-15T07:27:12;13.57;;;1.33;;
53309;SDS011;39197;53.200;5.792;2024-01-15T07:29:38;12.93;;;1.95;;
53309;SDS011;39197;53.200;5.792;2024-01-15T07:32:03;8.88;;;0.88;;
53309;SDS011;39197;53.200;5.792;2024-01-15T07:34:30;13.82;;;1.73;;
53309;SDS011;39197;53.200;5.792;2024-01-15T07:36:56;19.35;;;1.85;;
53309;SDS011;39197;53.200;5.792;2024-01-15T07:39:22;12.27;;;0.90;;
53309;SDS011;39197;53.200;5.792;2024-01-15T07:41:49;8.05;;;0.80;;
53309;SDS011;39197;53.200;5.792;2024-01-15T07:44:15;9.13;;;0.35;;
53309;SDS011;39197;53.200;5.792;2024-01-15T07:46:44;5.10;;;0.47;;
53309;SDS011;39197;53.200;5.792;2024-01-15T07:49:10;4.10;;;0.20;;
53309;SDS011;39197;53.200;5.792;2024-01-15T07:51:36;5.35;;;0.40;;
53309;SDS011;39197;53.200;5.792;2024-01-15T07:54:02;7.13;;;0.40;;
53309;SDS011;39197;53.200;5.792;2024-01-15T07:56:28;4.15;;;0.35;;
53309;SDS011;39197;53.200;5.792;2024-01-15T07:58:54;3.75;;;0.20;;
53309;SDS011;39197;53.200;5.792;2024-01-15T08:01:21;4.50;;;0.50;;
53309;SDS011;39197;53.200;5.792;2024-01-15T08:03:46;3.50;;;0.43;;
53309;SDS011;39197;53.200;5.792;2024-01-15T08:06:13;3.50;;;0.25;;
53309;SDS011;39197;53.200;5.792;2024-01-15T08:08:38;7.07;;;1.35;;
53309;SDS011;39197;53.200;5.792;2024-01-15T08:11:04;3.63;;;0.40;;
53309;SDS011;39197;53.200;5.792;2024-01-15T08:13:30;7.28;;;0.40;;
53309;SDS011;39197;53.200;5.792;2024-01-15T08:15:56;7.53;;;1.00;;
53309;SDS011;39197;53.200;5.792;2024-01-15T08:18:21;8.70;;;1.05;;
53309;SDS011;39197;53.200;5.792;2024-01-15T08:20:47;12.40;;;0.70;;
53309;SDS011;39197;53.200;5.792;2024-01-15T08:23:13;14.95;;;1.60;;
53309;SDS011;39197;53.200;5.792;2024-01-15T08:25:38;17.67;;;1.45;;
53309;SDS011;39197;53.200;5.792;2024-01-15T08:28:04;22.83;;;3.25;;
53309;SDS011;39197;53.200;5.792;2024-01-15T08:30:30;8.55;;;1.08;;
53309;SDS011;39197;53.200;5.792;2024-01-15T08:32:56;11.35;;;2.15;;
53309;SDS011;39197;53.200;5.792;2024-01-15T08:35:22;12.98;;;1.15;;
53309;SDS011;39197;53.200;5.792;2024-01-15T08:37:51;16.60;;;1.00;;
53309;SDS011;39197;53.200;5.792;2024-01-15T08:40:18;10.77;;;1.20;;
53309;SDS011;39197;53.200;5.792;2024-01-15T08:42:43;16.27;;;0.77;;
53309;SDS011;39197;53.200;5.792;2024-01-15T08:45:10;13.32;;;1.25;;
53309;SDS011;39197;53.200;5.792;2024-01-15T08:47:36;11.50;;;1.08;;
53309;SDS011;39197;53.200;5.792;2024-01-15T08:50:02;13.95;;;0.80;;
53309;SDS011;39197;53.200;5.792;2024-01-15T08:52:29;11.18;;;1.10;;
53309;SDS011;39197;53.200;5.792;2024-01-15T08:54:58;12.45;;;1.00;;
53309;SDS011;39197;53.200;5.792;2024-01-15T08:57:23;7.20;;;0.68;;
53309;SDS011;39197;53.200;5.792;2024-01-15T08:59:49;17.40;;;1.27;;
53309;SDS011;39197;53.200;5.792;2024-01-15T09:02:16;11.52;;;1.52;;
53309;SDS011;39197;53.200;5.792;2024-01-15T09:04:41;15.90;;;1.00;;
53309;SDS011;39197;53.200;5.792;2024-01-15T09:07:07;11.10;;;1.00;;
53309;SDS011;39197;53.200;5.792;2024-01-15T09:09:33;13.52;;;0.98;;
53309;SDS011;39197;53.200;5.792;2024-01-15T09:12:00;11.40;;;1.10;;
53309;SDS011;39197;53.200;5.792;2024-01-15T09:14:25;13.38;;;1.27;;
53309;SDS011;39197;53.200;5.792;2024-01-15T09:16:52;10.05;;;1.35;;
53309;SDS011;39197;53.200;5.792;2024-01-15T09:19:18;6.60;;;0.70;;
53309;SDS011;39197;53.200;5.792;2024-01-15T09:21:44;20.95;;;1.67;;
53309;SDS011;39197;53.200;5.792;2024-01-15T09:24:09;10.50;;;1.15;;
53309;SDS011;39197;53.200;5.792;2024-01-15T09:26:35;8.25;;;0.80;;
53309;SDS011;39197;53.200;5.792;2024-01-15T09:29:00;3.10;;;0.45;;
53309;SDS011;39197;53.200;5.792;2024-01-15T09:31:26;7.25;;;0.65;;
53309;SDS011;39197;53.200;5.792;2024-01-15T09:33:52;8.55;;;0.60;;
53309;SDS011;39197;53.200;5.792;2024-01-15T09:36:21;10.35;;;0.95;;
53309;SDS011;39197;53.200;5.792;2024-01-15T09:38:47;8.55;;;0.85;;
53309;SDS011;39197;53.200;5.792;2024-01-15T09:41:13;5.75;;;0.88;;
53309;SDS011;39197;53.200;5.792;2024-01-15T09:43:39;7.55;;;0.73;;
53309;SDS011;39197;53.200;5.792;2024-01-15T09:46:05;4.03;;;0.43;;
53309;SDS011;39197;53.200;5.792;2024-01-15T09:48:31;6.28;;;0.30;;
53309;SDS011;39197;53.200;5.792;2024-01-15T09:50:59;5.65;;;0.77;;
53309;SDS011;39197;53.200;5.792;2024-01-15T09:53:27;4.75;;;0.40;;
53309;SDS011;39197;53.200;5.792;2024-01-15T09:55:52;6.68;;;0.75;;
53309;SDS011;39197;53.200;5.792;2024-01-15T09:58:18;5.22;;;0.52;;
53309;SDS011;39197;53.200;5.792;2024-01-15T10:00:44;3.95;;;1.20;;
53309;SDS011;39197;53.200;5.792;2024-01-15T10:03:12;4.72;;;0.50;;
53309;SDS011;39197;53.200;5.792;2024-01-15T10:05:38;8.85;;;1.40;;
53309;SDS011;39197;53.200;5.792;2024-01-15T10:08:04;4.88;;;1.23;;
53309;SDS011;39197;53.200;5.792;2024-01-15T10:10:30;5.13;;;0.68;;
53309;SDS011;39197;53.200;5.792;2024-01-15T10:12:56;4.20;;;0.65;;
53309;SDS011;39197;53.200;5.792;2024-01-15T10:15:25;1.92;;;0.10;;
53309;SDS011;39197;53.200;5.792;2024-01-15T10:17:51;2.47;;;0.17;;
53309;SDS011;39197;53.200;5.792;2024-01-15T10:20:17;2.30;;;0.10;;
53309;SDS011;39197;53.200;5.792;2024-01-15T10:22:43;4.15;;;0.30;;
53309;SDS011;39197;53.200;5.792;2024-01-15T10:25:13;5.70;;;0.65;;
53309;SDS011;39197;53.200;5.792;2024-01-15T10:27:40;7.00;;;0.88;;
53309;SDS011;39197;53.200;5.792;2024-01-15T10:30:09;3.58;;;0.38;;
53309;SDS011;39197;53.200;5.792;2024-01-15T10:32:35;4.95;;;0.30;;
53309;SDS011;39197;53.200;5.792;2024-01-15T10:35:01;7.47;;;0.85;;
53309;SDS011;39197;53.200;5.792;2024-01-15T10:37:27;11.25;;;1.20;;
53309;SDS011;39197;53.200;5.792;2024-01-15T10:39:52;4.75;;;0.60;;
53309;SDS011;39197;53.200;5.792;2024-01-15T10:42:18;10.57;;;2.30;;
53309;SDS011;39197;53.200;5.792;2024-01-15T10:44:44;14.70;;;1.73;;
53309;SDS011;39197;53.200;5.792;2024-01-15T10:47:12;16.77;;;1.35;;
53309;SDS011;39197;53.200;5.792;2024-01-15T10:49:38;11.48;;;1.75;;
53309;SDS011;39197;53.200;5.792;2024-01-15T10:52:04;8.43;;;1.13;;
53309;SDS011;39197;53.200;5.792;2024-01-15T10:54:31;14.88;;;1.10;;
53309;SDS011;39197;53.200;5.792;2024-01-15T10:56:58;8.18;;;1.13;;
53309;SDS011;39197;53.200;5.792;2024-01-15T10:59:24;9.82;;;1.10;;
53309;SDS011;39197;53.200;5.792;2024-01-15T11:01:50;9.68;;;0.95;;
53309;SDS011;39197;53.200;5.792;2024-01-15T11:04:19;10.15;;;1.48;;
53309;SDS011;39197;53.200;5.792;2024-01-15T11:06:48;11.52;;;0.73;;
53309;SDS011;39197;53.200;5.792;2024-01-15T11:09:17;8.20;;;0.80;;
53309;SDS011;39197;53.200;5.792;2024-01-15T11:11:44;12.10;;;1.63;;
53309;SDS011;39197;53.200;5.792;2024-01-15T11:14:12;11.93;;;1.80;;
53309;SDS011;39197;53.200;5.792;2024-01-15T11:17:03;8.30;;;1.00;;
53309;SDS011;39197;53.200;5.792;2024-01-15T11:19:46;10.75;;;0.75;;
53309;SDS011;39197;53.200;5.792;2024-01-15T11:24:57;6.55;;;0.90;;
53309;SDS011;39197;53.200;5.792;2024-01-15T11:30:09;13.82;;;2.08;;
53309;SDS011;39197;53.200;5.792;2024-01-15T11:32:36;10.55;;;0.52;;
53309;SDS011;39197;53.200;5.792;2024-01-15T11:35:06;5.50;;;0.50;;
53309;SDS011;39197;53.200;5.792;2024-01-15T11:40:38;6.25;;;0.77;;
53309;SDS011;39197;53.200;5.792;2024-01-15T11:43:05;6.63;;;0.77;;
53309;SDS011;39197;53.200;5.792;2024-01-15T11:45:34;10.77;;;1.25;;
53309;SDS011;39197;53.200;5.792;2024-01-15T11:48:13;7.95;;;0.50;;
53309;SDS011;39197;53.200;5.792;2024-01-15T11:50:39;6.47;;;0.82;;
53309;SDS011;39197;53.200;5.792;2024-01-15T11:53:14;10.32;;;1.25;;
53309;SDS011;39197;53.200;5.792;2024-01-15T11:55:44;9.90;;;1.65;;
53309;SDS011;39197;53.200;5.792;2024-01-15T11:58:10;9.27;;;1.13;;
53309;SDS011;39197;53.200;5.792;2024-01-15T12:00:43;8.00;;;1.13;;
53309;SDS011;39197;53.200;5.792;2024-01-15T12:03:10;10.20;;;0.77;;
53309;SDS011;39197;53.200;5.792;2024-01-15T12:05:39;12.48;;;1.58;;
53309;SDS011;39197;53.200;5.792;2024-01-15T12:08:05;8.88;;;0.90;;
53309;SDS011;39197;53.200;5.792;2024-01-15T12:10:35;9.50;;;0.60;;
53309;SDS011;39197;53.200;5.792;2024-01-15T12:13:12;5.82;;;0.50;;
53309;SDS011;39197;53.200;5.792;2024-01-15T12:15:39;9.27;;;0.80;;
53309;SDS011;39197;53.200;5.792;2024-01-15T12:18:09;8.98;;;1.27;;
53309;SDS011;39197;53.200;5.792;2024-01-15T12:20:36;9.57;;;1.15;;
53309;SDS011;39197;53.200;5.792;2024-01-15T12:23:02;7.32;;;0.80;;
53309;SDS011;39197;53.200;5.792;2024-01-15T12:25:29;18.58;;;2.05;;
53309;SDS011;39197;53.200;5.792;2024-01-15T12:27:55;8.13;;;0.77;;
53309;SDS011;39197;53.200;5.792;2024-01-15T12:30:22;7.90;;;1.17;;
53309;SDS011;39197;53.200;5.792;2024-01-15T12:32:47;9.25;;;1.60;;
53309;SDS011;39197;53.200;5.792;2024-01-15T12:35:13;7.65;;;0.80;;
53309;SDS011;39197;53.200;5.792;2024-01-15T12:37:40;9.93;;;0.88;;
53309;SDS011;39197;53.200;5.792;2024-01-15T12:40:07;11.45;;;2.03;;
53309;SDS011;39197;53.200;5.792;2024-01-15T12:42:35;16.48;;;2.60;;
53309;SDS011;39197;53.200;5.792;2024-01-15T12:45:01;13.63;;;1.88;;
53309;SDS011;39197;53.200;5.792;2024-01-15T12:47:29;9.70;;;1.85;;
53309;SDS011;39197;53.200;5.792;2024-01-15T12:49:56;13.27;;;1.83;;
53309;SDS011;39197;53.200;5.792;2024-01-15T12:52:22;14.65;;;2.28;;
53309;SDS011;39197;53.200;5.792;2024-01-15T12:54:48;18.58;;;1.95;;
53309;SDS011;39197;53.200;5.792;2024-01-15T12:57:15;17.08;;;1.90;;
53309;SDS011;39197;53.200;5.792;2024-01-15T12:59:41;13.77;;;2.08;;
53309;SDS011;39197;53.200;5.792;2024-01-15T13:02:06;9.85;;;1.45;;
53309;SDS011;39197;53.200;5.792;2024-01-15T13:04:32;15.85;;;1.67;;
53309;SDS011;39197;53.200;5.792;2024-01-15T13:06:57;14.88;;;1.85;;
53309;SDS011;39197;53.200;5.792;2024-01-15T13:09:23;16.65;;;1.38;;
53309;SDS011;39197;53.200;5.792;2024-01-15T13:11:48;22.20;;;5.00;;
53309;SDS011;39197;53.200;5.792;2024-01-15T13:14:14;19.33;;;2.85;;
53309;SDS011;39197;53.200;5.792;2024-01-15T13:16:40;13.43;;;1.30;;
53309;SDS011;39197;53.200;5.792;2024-01-15T13:19:07;26.85;;;3.05;;
53309;SDS011;39197;53.200;5.792;2024-01-15T13:21:33;15.23;;;2.10;;
53309;SDS011;39197;53.200;5.792;2024-01-15T13:23:59;17.95;;;2.00;;
53309;SDS011;39197;53.200;5.792;2024-01-15T13:26:25;15.20;;;1.83;;
53309;SDS011;39197;53.200;5.792;2024-01-15T13:28:50;15.57;;;2.60;;
53309;SDS011;39197;53.200;5.792;2024-01-15T13:31:16;12.65;;;1.65;;
53309;SDS011;39197;53.200;5.792;2024-01-15T13:33:41;9.57;;;0.88;;
53309;SDS011;39197;53.200;5.792;2024-01-15T13:36:07;10.57;;;1.15;;
53309;SDS011;39197;53.200;5.792;2024-01-15T13:38:35;4.28;;;0.50;;
53309;SDS011;39197;53.200;5.792;2024-01-15T13:41:03;9.45;;;2.88;;
53309;SDS011;39197;53.200;5.792;2024-01-15T13:43:31;14.88;;;3.55;;
53309;SDS011;39197;53.200;5.792;2024-01-15T13:45:58;27.73;;;7.47;;
53309;SDS011;39197;53.200;5.792;2024-01-15T13:48:24;14.80;;;2.75;;
53309;SDS011;39197;53.200;5.792;2024-01-15T13:50:49;13.63;;;2.58;;
53309;SDS011;39197;53.200;5.792;2024-01-15T13:53:16;18.77;;;3.05;;
53309;SDS011;39197;53.200;5.792;2024-01-15T13:55:41;18.13;;;2.58;;
53309;SDS011;39197;53.200;5.792;2024-01-15T13:58:07;15.95;;;3.42;;
53309;SDS011;39197;53.200;5.792;2024-01-15T14:00:33;15.63;;;2.20;;
53309;SDS011;39197;53.200;5.792;2024-01-15T14:02:58;15.38;;;2.88;;
53309;SDS011;39197;53.200;5.792;2024-01-15T14:05:24;17.20;;;1.80;;
53309;SDS011;39197;53.200;5.792;2024-01-15T14:07:49;8.10;;;1.55;;
53309;SDS011;39197;53.200;5.792;2024-01-15T14:10:15;14.85;;;1.60;;
53309;SDS011;39197;53.200;5.792;2024-01-15T14:12:41;12.00;;;1.38;;
53309;SDS011;39197;53.200;5.792;2024-01-15T14:15:06;10.68;;;1.10;;
53309;SDS011;39197;53.200;5.792;2024-01-15T14:17:33;11.30;;;1.05;;
53309;SDS011;39197;53.200;5.792;2024-01-15T14:19:58;6.90;;;0.98;;
53309;SDS011;39197;53.200;5.792;2024-01-15T14:22:24;9.23;;;0.70;;
53309;SDS011;39197;53.200;5.792;2024-01-15T14:24:49;4.45;;;0.50;;
53309;SDS011;39197;53.200;5.792;2024-01-15T14:27:16;5.15;;;0.35;;
53309;SDS011;39197;53.200;5.792;2024-01-15T14:29:41;2.60;;;0.30;;
53309;SDS011;39197;53.200;5.792;2024-01-15T14:32:07;2.95;;;0.20;;
53309;SDS011;39197;53.200;5.792;2024-01-15T14:34:33;4.18;;;0.63;;
53309;SDS011;39197;53.200;5.792;2024-01-15T14:37:01;6.20;;;0.43;;
53309;SDS011;39197;53.200;5.792;2024-01-15T14:39:26;2.47;;;0.50;;
53309;SDS011;39197;53.200;5.792;2024-01-15T14:41:52;7.28;;;0.90;;